Time;durP1;ratioP1;P1;durP2;ratioP2;P2;SDS_P1;SDS_P2;PMS_P1;PMS_P2;Temp;Humidity;BMP_temperature;BMP_pressure;BME280_temperature;BME280_humidity;BME280_pressure;Samples;Min_cycle;Max_cycle;Signal;HPM_P1;HPM_P2
2023/09/16 00:00:09;;;;;;;6.38;3.10;;;15.00;99.90;;;;;;5033466;28;20052;-55
2023/09/16 00:02:38;;;;;;;7.35;3.60;;;15.10;99.90;;;;;;5034023;28;20036;-51
2023/09/16 00:05:04;;;;;;;7.32;3.58;;;15.10;99.90;;;;;;5034189;28;20021;-55
2023/09/16 00:07:31;;;;;;;5.35;2.85;;;15.20;99.90;;;;;;5015585;28;20397;-56
2023/09/16 00:09:57;;;;;;;7.13;2.88;;;15.20;99.90;;;;;;5033502;28;20029;-56
2023/09/16 00:12:24;;;;;;;8.43;3.38;;;15.20;99.90;;;;;;5033269;28;20084;-52
2023/09/16 00:14:49;;;;;;;9.48;3.05;;;15.20;99.90;;;;;;5033515;28;20033;-56
2023/09/16 00:17:15;;;;;;;6.88;3.10;;;15.30;99.90;;;;;;5033240;28;20078;-53
2023/09/16 00:19:40;;;;;;;5.28;2.70;;;15.30;99.90;;;;;;5032893;28;20021;-53
2023/09/16 00:22:10;;;;;;;7.85;3.00;;;15.30;99.90;;;;;;5033573;28;20030;-55
2023/09/16 00:24:36;;;;;;;3.63;2.00;;;15.30;99.90;;;;;;5033502;28;20071;-56
2023/09/16 00:27:02;;;;;;;5.38;2.78;;;15.30;99.90;;;;;;5033645;28;20096;-54
2023/09/16 00:29:29;;;;;;;4.95;2.65;;;15.30;99.90;;;;;;5032739;28;20037;-52
2023/09/16 00:31:54;;;;;;;4.50;2.47;;;15.30;99.90;;;;;;5015728;28;20037;-54
2023/09/16 00:34:20;;;;;;;6.72;2.80;;;15.30;99.90;;;;;;5015897;28;20128;-55
2023/09/16 00:36:45;;;;;;;6.53;2.88;;;15.30;99.90;;;;;;5033625;28;20091;-53
2023/09/16 00:39:11;;;;;;;5.65;2.50;;;15.40;99.90;;;;;;5034585;28;20389;-54
2023/09/16 00:41:37;;;;;;;6.50;2.75;;;15.40;99.90;;;;;;5022042;28;20043;-53
2023/09/16 00:44:03;;;;;;;8.30;3.25;;;15.40;99.90;;;;;;5040274;28;20029;-55
2023/09/16 00:46:29;;;;;;;4.85;2.63;;;15.50;99.90;;;;;;5022358;28;20396;-51
2023/09/16 00:48:56;;;;;;;4.50;2.80;;;15.50;99.90;;;;;;5005700;28;20188;-52
2023/09/16 00:51:22;;;;;;;6.97;2.90;;;15.50;99.90;;;;;;5006043;28;20439;-52
2023/09/16 00:53:49;;;;;;;6.43;3.25;;;15.60;99.90;;;;;;5022304;28;20037;-54
2023/09/16 00:56:15;;;;;;;5.90;3.25;;;15.60;99.90;;;;;;5021864;28;20063;-54
2023/09/16 00:58:41;;;;;;;5.72;2.83;;;15.60;99.90;;;;;;5021369;28;20112;-54
2023/09/16 01:01:09;;;;;;;5.60;2.75;;;15.60;99.90;;;;;;5040024;28;20106;-55
2023/09/16 01:03:35;;;;;;;5.28;2.85;;;15.60;99.90;;;;;;5021740;28;20042;-55
2023/09/16 01:06:06;;;;;;;8.32;3.00;;;15.60;99.90;;;;;;5022197;28;20060;-53
2023/09/16 01:08:36;;;;;;;5.75;2.83;;;15.60;99.90;;;;;;5022204;28;20033;-54
2023/09/16 01:11:05;;;;;;;5.47;2.78;;;15.60;99.90;;;;;;5021891;28;20036;-54
2023/09/16 01:13:35;;;;;;;7.88;3.33;;;15.60;99.90;;;;;;5039862;28;20029;-55
2023/09/16 01:16:18;;;;;;;5.35;3.13;;;15.60;99.90;;;;;;5040270;28;20025;-54
2023/09/16 01:18:50;;;;;;;7.85;3.22;;;15.60;99.90;;;;;;5039166;28;20030;-55
2023/09/16 01:21:17;;;;;;;5.55;3.28;;;15.60;99.90;;;;;;5039763;28;20041;-54
2023/09/16 01:23:44;;;;;;;6.13;3.20;;;15.60;99.90;;;;;;5039899;28;20073;-53
2023/09/16 01:26:10;;;;;;;7.45;3.10;;;15.60;99.90;;;;;;5005721;28;20033;-54
2023/09/16 01:28:36;;;;;;;9.15;2.88;;;15.60;99.90;;;;;;5039265;28;20045;-53
2023/09/16 01:31:03;;;;;;;7.18;2.80;;;15.60;99.90;;;;;;5022150;28;20509;-50
2023/09/16 01:33:38;;;;;;;6.00;3.42;;;15.60;99.90;;;;;;5039609;28;20060;-52
2023/09/16 01:36:09;;;;;;;6.60;3.30;;;15.60;99.90;;;;;;5039774;28;20030;-54
2023/09/16 01:38:37;;;;;;;7.72;3.70;;;15.60;99.90;;;;;;5039291;28;20041;-54
2023/09/16 01:41:04;;;;;;;7.90;3.38;;;15.60;99.90;;;;;;5039501;28;20029;-54
2023/09/16 01:43:31;;;;;;;7.13;3.45;;;15.60;99.90;;;;;;5005915;28;20034;-52
2023/09/16 01:45:57;;;;;;;6.68;3.38;;;15.60;99.90;;;;;;5039878;28;20036;-53
2023/09/16 01:48:22;;;;;;;7.78;3.38;;;15.60;99.90;;;;;;5039099;28;20386;-52
2023/09/16 01:50:49;;;;;;;4.88;3.10;;;15.60;99.90;;;;;;5020699;28;20405;-53
2023/09/16 01:53:16;;;;;;;6.25;3.75;;;15.60;99.90;;;;;;5002437;28;20036;-54
2023/09/16 01:55:41;;;;;;;6.28;3.38;;;15.60;99.90;;;;;;5018863;28;20029;-52
2023/09/16 01:58:08;;;;;;;6.45;3.33;;;15.60;99.90;;;;;;5018899;28;20099;-53
2023/09/16 02:00:37;;;;;;;5.97;3.13;;;15.60;99.90;;;;;;5018444;28;20494;-50
2023/09/16 02:03:03;;;;;;;7.95;3.67;;;15.60;99.90;;;;;;5019202;28;20033;-55
2023/09/16 02:05:29;;;;;;;6.90;3.00;;;15.60;99.90;;;;;;5036539;28;20060;-51
2023/09/16 02:07:57;;;;;;;5.80;3.10;;;15.70;99.90;;;;;;5018534;28;20471;-53
2023/09/16 02:10:23;;;;;;;7.15;3.47;;;15.70;99.90;;;;;;5036101;28;20026;-50
2023/09/16 02:12:49;;;;;;;6.82;3.40;;;15.70;99.90;;;;;;5037266;28;20033;-53
2023/09/16 02:15:15;;;;;;;6.90;3.35;;;15.70;99.90;;;;;;5019125;28;20116;-53
2023/09/16 02:17:41;;;;;;;6.88;3.20;;;15.70;99.90;;;;;;5018509;28;20033;-51
2023/09/16 02:20:11;;;;;;;6.32;3.45;;;15.70;99.90;;;;;;5018419;28;20029;-53
2023/09/16 02:22:38;;;;;;;5.68;3.47;;;15.80;99.90;;;;;;5019081;28;20516;-53
2023/09/16 02:25:04;;;;;;;8.10;3.63;;;15.80;99.90;;;;;;5036780;28;20032;-52
2023/09/16 02:27:30;;;;;;;5.88;3.03;;;15.80;99.90;;;;;;5018606;28;20109;-51
2023/09/16 02:29:55;;;;;;;5.38;3.42;;;15.80;99.90;;;;;;5018286;28;20204;-54
2023/09/16 02:32:21;;;;;;;7.65;3.55;;;15.70;99.90;;;;;;5017929;28;20477;-52
2023/09/16 02:34:46;;;;;;;6.45;3.50;;;15.70;99.90;;;;;;5018212;28;20030;-50
2023/09/16 02:37:12;;;;;;;6.00;3.20;;;15.70;99.90;;;;;;5017924;28;20042;-53
2023/09/16 02:39:39;;;;;;;9.02;3.15;;;15.70;99.90;;;;;;5017408;28;20481;-54
2023/09/16 02:42:05;;;;;;;6.07;3.17;;;15.70;99.90;;;;;;5018317;28;20036;-54
2023/09/16 02:44:30;;;;;;;8.70;3.85;;;15.70;99.90;;;;;;5018668;28;20033;-52
2023/09/16 02:46:56;;;;;;;8.60;3.67;;;15.60;99.90;;;;;;5035865;28;20040;-54
2023/09/16 02:49:22;;;;;;;9.23;3.80;;;15.70;99.90;;;;;;5017486;28;20495;-50
2023/09/16 02:51:48;;;;;;;6.30;3.50;;;15.70;99.90;;;;;;5016421;28;20029;-51
2023/09/16 02:54:14;;;;;;;7.50;3.38;;;15.60;99.90;;;;;;5016230;28;20018;-54
2023/09/16 02:56:40;;;;;;;7.28;3.65;;;15.60;99.90;;;;;;5034550;28;20028;-54
2023/09/16 02:59:05;;;;;;;8.98;3.65;;;15.60;99.90;;;;;;5016850;28;20088;-55
2023/09/16 03:01:31;;;;;;;6.75;3.72;;;15.50;99.90;;;;;;5017209;28;20029;-53
2023/09/16 03:03:57;;;;;;;6.85;3.65;;;15.50;99.90;;;;;;5016297;28;20363;-54
2023/09/16 03:06:26;;;;;;;7.30;3.83;;;15.50;99.90;;;;;;5015653;28;20057;-54
2023/09/16 03:08:52;;;;;;;7.03;3.70;;;15.50;99.90;;;;;;5000154;28;20035;-54
2023/09/16 03:11:18;;;;;;;6.55;3.50;;;15.40;99.90;;;;;;5017383;28;20034;-53
2023/09/16 03:13:45;;;;;;;6.88;3.65;;;15.40;99.90;;;;;;5017312;28;20095;-55
2023/09/16 03:16:13;;;;;;;6.57;3.20;;;15.50;99.90;;;;;;5016900;28;20021;-52
2023/09/16 03:18:42;;;;;;;7.40;3.88;;;15.40;99.90;;;;;;5016878;28;20056;-54
2023/09/16 03:21:07;;;;;;;5.77;3.73;;;15.40;99.90;;;;;;5015087;28;20037;-54
2023/09/16 03:23:33;;;;;;;7.90;4.07;;;15.40;99.90;;;;;;5014563;28;20456;-51
2023/09/16 03:25:59;;;;;;;7.22;3.70;;;15.40;99.90;;;;;;5015830;28;20543;-51
2023/09/16 03:28:25;;;;;;;6.40;3.95;;;15.30;99.90;;;;;;4998671;28;20116;-53
2023/09/16 03:30:51;;;;;;;7.13;3.70;;;15.30;99.90;;;;;;5015728;28;20117;-50
2023/09/16 03:33:16;;;;;;;6.88;3.60;;;15.30;99.90;;;;;;5016277;28;20392;-53
2023/09/16 03:35:43;;;;;;;7.30;3.92;;;15.20;99.90;;;;;;5016260;28;20033;-52
2023/09/16 03:38:09;;;;;;;7.15;3.40;;;15.20;99.90;;;;;;5034205;28;20037;-50
2023/09/16 03:40:35;;;;;;;7.10;3.67;;;15.20;99.90;;;;;;5016799;28;20288;-50
2023/09/16 03:43:01;;;;;;;7.03;3.45;;;15.20;99.90;;;;;;5016415;28;20033;-50
2023/09/16 03:45:27;;;;;;;9.00;4.47;;;15.10;99.90;;;;;;5016825;28;20033;-51
2023/09/16 03:47:52;;;;;;;8.30;3.65;;;15.10;99.90;;;;;;5016378;28;20394;-50
2023/09/16 03:50:18;;;;;;;7.53;3.72;;;15.00;99.90;;;;;;5033976;28;20060;-50
2023/09/16 03:52:45;;;;;;;7.60;3.38;;;15.00;99.90;;;;;;5016777;28;20033;-53
2023/09/16 03:55:11;;;;;;;8.10;3.72;;;15.00;99.90;;;;;;5017539;28;20029;-54
2023/09/16 03:57:36;;;;;;;8.32;4.40;;;14.90;99.90;;;;;;5034214;28;20120;-54
2023/09/16 04:00:06;;;;;;;5.72;3.60;;;14.90;99.90;;;;;;5016326;28;20029;-53
2023/09/16 04:02:40;;;;;;;9.07;4.30;;;14.90;99.90;;;;;;5034313;28;20029;-55
2023/09/16 04:05:07;;;;;;;8.40;3.88;;;14.90;99.90;;;;;;5016638;28;20033;-51
2023/09/16 04:07:32;;;;;;;7.07;3.97;;;15.00;99.90;;;;;;5017330;28;20044;-50
2023/09/16 04:09:58;;;;;;;5.40;3.55;;;15.00;99.90;;;;;;5016477;28;20046;-51
2023/09/16 04:12:23;;;;;;;8.63;4.10;;;15.00;99.90;;;;;;5016929;28;20132;-52
2023/09/16 04:14:50;;;;;;;7.68;4.05;;;15.00;99.90;;;;;;5016111;28;20026;-51
2023/09/16 04:17:15;;;;;;;9.13;3.70;;;15.00;99.90;;;;;;5034317;28;20025;-53
2023/09/16 04:19:41;;;;;;;9.25;4.13;;;14.90;99.90;;;;;;5034300;28;20087;-50
2023/09/16 04:22:07;;;;;;;6.45;3.72;;;14.90;99.90;;;;;;5016764;28;20030;-52
2023/09/16 04:24:33;;;;;;;6.38;3.65;;;14.80;99.90;;;;;;5016401;28;20029;-53
2023/09/16 04:26:59;;;;;;;9.23;4.57;;;14.80;99.90;;;;;;5016451;28;20037;-51
2023/09/16 04:29:25;;;;;;;8.32;4.20;;;14.70;99.90;;;;;;5015926;28;20059;-51
2023/09/16 04:31:51;;;;;;;7.60;4.15;;;14.70;99.90;;;;;;5016167;28;20056;-52
2023/09/16 04:34:17;;;;;;;8.02;3.80;;;14.70;99.90;;;;;;5033935;28;20598;-55
2023/09/16 04:36:43;;;;;;;7.78;4.07;;;14.70;99.90;;;;;;5016592;28;20098;-50
2023/09/16 04:39:09;;;;;;;6.75;3.97;;;14.70;99.90;;;;;;5034038;28;20033;-51
2023/09/16 04:41:35;;;;;;;8.52;4.13;;;14.70;99.90;;;;;;5016863;28;20043;-52
2023/09/16 04:44:03;;;;;;;8.93;4.13;;;14.70;99.90;;;;;;5016786;28;20026;-52
2023/09/16 04:46:30;;;;;;;8.18;4.18;;;14.70;99.90;;;;;;5016366;28;20030;-51
2023/09/16 04:49:02;;;;;;;6.72;4.07;;;14.70;99.90;;;;;;5016460;28;20043;-51
2023/09/16 04:51:28;;;;;;;9.23;4.47;;;14.70;99.90;;;;;;5016212;28;20030;-52
2023/09/16 04:53:56;;;;;;;11.05;4.80;;;14.60;99.90;;;;;;5016654;28;20040;-52
2023/09/16 04:56:23;;;;;;;9.43;4.82;;;14.60;99.90;;;;;;5016802;28;20021;-51
2023/09/16 04:58:53;;;;;;;10.93;4.70;;;14.70;99.90;;;;;;5015976;28;20476;-54
2023/09/16 05:01:18;;;;;;;8.85;4.53;;;14.80;99.90;;;;;;5034204;28;20026;-51
2023/09/16 05:03:44;;;;;;;9.68;4.90;;;14.80;99.90;;;;;;5016680;28;20371;-55
2023/09/16 05:06:10;;;;;;;10.40;4.72;;;14.80;99.90;;;;;;5016217;28;20057;-54
2023/09/16 05:08:37;;;;;;;8.57;4.85;;;14.80;99.90;;;;;;5015908;28;20164;-51
2023/09/16 05:11:03;;;;;;;11.23;5.30;;;14.90;99.90;;;;;;5033804;28;20477;-52
2023/09/16 05:13:36;;;;;;;10.55;5.57;;;14.90;99.90;;;;;;5016042;28;20518;-52
2023/09/16 05:16:03;;;;;;;8.27;4.53;;;14.90;99.90;;;;;;5016118;28;20033;-53
2023/09/16 05:18:29;;;;;;;10.63;5.10;;;14.90;99.90;;;;;;5015587;28;20034;-51
2023/09/16 05:20:54;;;;;;;10.43;5.53;;;14.90;99.90;;;;;;5015747;28;20485;-51
2023/09/16 05:23:23;;;;;;;12.52;5.97;;;14.80;99.90;;;;;;5015716;28;20037;-50
2023/09/16 05:25:50;;;;;;;9.88;4.90;;;14.80;99.90;;;;;;5017295;28;20393;-52
2023/09/16 05:28:24;;;;;;;11.82;6.00;;;14.80;99.90;;;;;;5018228;28;20037;-53
2023/09/16 05:30:49;;;;;;;12.82;5.40;;;14.80;99.90;;;;;;5017355;28;20045;-54
2023/09/16 05:33:16;;;;;;;13.00;5.57;;;14.80;99.90;;;;;;5019579;28;20033;-55
2023/09/16 05:35:43;;;;;;;11.07;4.97;;;14.80;99.90;;;;;;5020096;28;20061;-52
2023/09/16 05:38:09;;;;;;;11.18;5.28;;;14.80;99.90;;;;;;5020222;28;20497;-51
2023/09/16 05:40:37;;;;;;;11.23;5.57;;;14.90;99.90;;;;;;5019479;28;20289;-52
2023/09/16 05:43:03;;;;;;;11.48;5.65;;;14.80;99.90;;;;;;5020262;28;20095;-54
2023/09/16 05:45:31;;;;;;;11.13;5.35;;;14.80;99.90;;;;;;5019538;28;20096;-55
2023/09/16 05:48:01;;;;;;;12.63;6.05;;;14.80;99.90;;;;;;5019889;28;20508;-52
2023/09/16 05:50:32;;;;;;;13.68;6.78;;;14.80;99.90;;;;;;5019047;28;20018;-52
2023/09/16 05:52:58;;;;;;;14.07;6.78;;;14.90;99.90;;;;;;5019807;28;20417;-49
2023/09/16 05:55:25;;;;;;;10.48;5.40;;;14.90;99.90;;;;;;5019567;28;20486;-53
2023/09/16 05:57:51;;;;;;;11.43;5.63;;;15.00;99.90;;;;;;5018883;28;20489;-54
2023/09/16 06:00:17;;;;;;;12.43;6.47;;;15.00;99.90;;;;;;5036962;28;20028;-53
2023/09/16 06:02:43;;;;;;;10.20;5.57;;;15.00;99.90;;;;;;5018948;28;20375;-54
2023/09/16 06:05:11;;;;;;;13.82;7.22;;;15.00;99.90;;;;;;5018962;28;20025;-54
2023/09/16 06:07:40;;;;;;;12.95;6.65;;;15.00;99.90;;;;;;5036599;28;20040;-54
2023/09/16 06:10:06;;;;;;;;;;;15.10;99.90;;;;;;5018763;28;20029;-53
2023/09/16 06:12:33;;;;;;;13.27;5.20;;;15.20;99.90;;;;;;5001963;28;19922;-53
2023/09/16 06:14:59;;;;;;;11.55;6.13;;;15.20;99.90;;;;;;5018317;28;20560;-54
2023/09/16 06:17:24;;;;;;;11.77;5.93;;;15.20;99.90;;;;;;5018441;28;20402;-55
2023/09/16 06:19:54;;;;;;;11.15;6.20;;;15.30;99.90;;;;;;5017736;28;20075;-55
2023/09/16 06:22:21;;;;;;;9.93;6.18;;;15.40;99.90;;;;;;5017873;28;20409;-54
2023/09/16 06:24:47;;;;;;;11.95;6.53;;;15.40;99.90;;;;;;5018059;28;20037;-55
2023/09/16 06:27:14;;;;;;;10.73;5.22;;;15.50;99.90;;;;;;5017889;28;20493;-55
2023/09/16 06:29:41;;;;;;;10.18;5.47;;;15.60;99.90;;;;;;5017058;28;20029;-52
2023/09/16 06:32:08;;;;;;;8.80;5.15;;;15.60;99.90;;;;;;5017368;28;20029;-52
2023/09/16 06:34:34;;;;;;;16.02;6.65;;;15.70;99.90;;;;;;5017805;28;20026;-53
2023/09/16 06:37:00;;;;;;;10.50;5.63;;;15.80;99.90;;;;;;5016680;28;20040;-51
2023/09/16 06:39:26;;;;;;;9.50;5.15;;;15.90;99.90;;;;;;5017285;28;20053;-54
2023/09/16 06:41:52;;;;;;;13.02;6.20;;;16.00;99.90;;;;;;5017962;28;20030;-51
2023/09/16 06:44:18;;;;;;;12.65;5.68;;;16.00;99.90;;;;;;5017942;28;20025;-55
2023/09/16 06:46:43;;;;;;;11.07;6.10;;;16.20;99.90;;;;;;5017185;28;20033;-55
2023/09/16 06:49:09;;;;;;;9.95;5.57;;;16.20;99.90;;;;;;5034321;28;20025;-55
2023/09/16 06:51:35;;;;;;;10.20;5.50;;;16.40;99.90;;;;;;5034978;28;20029;-54
2023/09/16 06:54:01;;;;;;;9.07;5.22;;;16.50;99.90;;;;;;5035007;28;20026;-53
2023/09/16 06:56:27;;;;;;;9.02;4.90;;;16.60;99.90;;;;;;5017355;28;20464;-53
2023/09/16 06:58:56;;;;;;;9.60;4.28;;;16.70;99.90;;;;;;5034636;28;20029;-55
2023/09/16 07:01:24;;;;;;;10.23;4.85;;;16.90;99.90;;;;;;5016812;28;20034;-55
2023/09/16 07:03:50;;;;;;;9.93;5.10;;;17.00;99.90;;;;;;5034672;28;20034;-55
2023/09/16 07:06:15;;;;;;;12.00;5.03;;;17.00;99.90;;;;;;5034461;28;20559;-54
2023/09/16 07:08:41;;;;;;;8.73;4.90;;;17.10;99.90;;;;;;5034068;28;20037;-51
2023/09/16 07:11:06;;;;;;;9.90;4.60;;;17.20;99.90;;;;;;5034481;28;20061;-52
2023/09/16 07:13:32;;;;;;;8.23;4.18;;;17.30;99.90;;;;;;5034042;28;20446;-54
2023/09/16 07:15:58;;;;;;;9.45;4.18;;;17.40;99.90;;;;;;5034927;28;20501;-52
2023/09/16 07:18:24;;;;;;;8.18;4.15;;;17.50;99.90;;;;;;5033730;28;20041;-54
2023/09/16 07:20:49;;;;;;;8.60;4.82;;;17.60;99.90;;;;;;5034078;28;20048;-52
2023/09/16 07:23:15;;;;;;;8.18;4.10;;;17.70;99.90;;;;;;5033947;28;20037;-54
2023/09/16 07:25:41;;;;;;;10.30;4.20;;;17.80;99.90;;;;;;5034110;28;20034;-54
2023/09/16 07:28:07;;;;;;;9.88;4.35;;;17.90;99.90;;;;;;5034357;28;20490;-50
2023/09/16 07:30:34;;;;;;;8.38;4.18;;;17.90;99.90;;;;;;5033693;28;20029;-53
2023/09/16 07:33:00;;;;;;;7.30;4.60;;;18.10;99.90;;;;;;5033760;28;20029;-52
2023/09/16 07:35:26;;;;;;;8.55;4.38;;;18.10;99.90;;;;;;5033575;28;20394;-54
2023/09/16 07:37:52;;;;;;;7.65;4.32;;;18.20;99.90;;;;;;5033878;28;20041;-51
2023/09/16 07:40:18;;;;;;;6.68;3.50;;;18.20;99.90;;;;;;5033811;28;20103;-55
2023/09/16 07:42:43;;;;;;;7.00;3.95;;;18.40;99.90;;;;;;5033856;28;20548;-54
2023/09/16 07:45:10;;;;;;;7.90;3.92;;;18.40;99.90;;;;;;5033808;28;20076;-52
2023/09/16 07:47:35;;;;;;;7.00;3.33;;;18.60;99.90;;;;;;5033428;28;20037;-54
2023/09/16 07:50:02;;;;;;;7.00;3.75;;;18.70;99.90;;;;;;5032651;28;20030;-53
2023/09/16 07:52:29;;;;;;;6.55;3.60;;;18.80;99.90;;;;;;5033401;28;20039;-51
2023/09/16 07:54:59;;;;;;;6.85;3.67;;;18.90;99.90;;;;;;5033444;28;20116;-55
2023/09/16 07:57:25;;;;;;;7.03;3.35;;;19.10;99.90;;;;;;5033569;28;20029;-54
2023/09/16 07:59:51;;;;;;;8.05;3.90;;;19.20;99.90;;;;;;5033124;28;20091;-54
2023/09/16 08:02:17;;;;;;;6.20;3.00;;;19.30;99.90;;;;;;5033455;28;20541;-50
2023/09/16 08:04:42;;;;;;;5.75;3.50;;;19.50;99.90;;;;;;5033324;28;20500;-53
2023/09/16 08:07:08;;;;;;;6.47;3.47;;;19.50;99.90;;;;;;5033742;28;20033;-54
2023/09/16 08:09:34;;;;;;;6.55;3.22;;;19.60;99.90;;;;;;5032443;28;20033;-55
2023/09/16 08:11:59;;;;;;;5.72;3.10;;;19.80;99.90;;;;;;5015613;28;20378;-54
2023/09/16 08:14:25;;;;;;;6.82;3.20;;;19.90;99.90;;;;;;5033635;28;20037;-52
2023/09/16 08:16:52;;;;;;;9.60;3.53;;;20.10;99.90;;;;;;5033659;28;20030;-50
2023/09/16 08:19:19;;;;;;;6.55;3.53;;;20.20;99.90;;;;;;5032719;28;20116;-54
2023/09/16 08:21:45;;;;;;;5.78;3.08;;;20.30;99.90;;;;;;5033283;28;20112;-54
2023/09/16 08:24:10;;;;;;;5.63;2.80;;;20.50;99.90;;;;;;5033432;28;20061;-54
2023/09/16 08:26:37;;;;;;;6.53;3.15;;;20.60;99.90;;;;;;5033967;28;20136;-50
2023/09/16 08:29:03;;;;;;;3.83;2.83;;;20.60;99.90;;;;;;5032526;28;20124;-54
2023/09/16 08:31:28;;;;;;;7.78;4.70;;;20.70;99.90;;;;;;5032924;28;20389;-51
2023/09/16 08:33:55;;;;;;;5.30;2.58;;;20.80;99.90;;;;;;5033455;28;20389;-50
2023/09/16 08:36:22;;;;;;;4.65;2.72;;;20.90;99.90;;;;;;5033296;28;20512;-55
2023/09/16 08:38:47;;;;;;;4.38;2.58;;;20.90;99.90;;;;;;5033089;28;20040;-51
2023/09/16 08:41:55;;;;;;;7.45;4.65;;;20.90;99.90;;;;;;5032892;28;20045;-53
2023/09/16 08:44:23;;;;;;;5.55;2.83;;;21.00;99.90;;;;;;5032625;28;20045;-52
2023/09/16 08:46:55;;;;;;;7.95;4.80;;;21.10;99.90;;;;;;5016038;28;20057;-50
2023/09/16 08:49:23;;;;;;;5.10;2.92;;;21.20;99.90;;;;;;5032771;28;20041;-53
2023/09/16 08:51:52;;;;;;;4.78;3.20;;;21.50;99.90;;;;;;5033336;28;20033;-49
2023/09/16 08:54:20;;;;;;;;;;;21.60;99.90;;;;;;5034518;28;20474;-50
2023/09/16 08:56:46;;;;;;;3.55;2.38;;;21.80;99.90;;;;;;5015847;28;20412;-48
2023/09/16 08:59:12;;;;;;;4.25;2.20;;;21.80;99.90;;;;;;5033479;28;20025;-52
2023/09/16 09:01:37;;;;;;;8.00;2.65;;;22.00;99.90;;;;;;5037230;28;20477;-52
2023/09/16 09:04:04;;;;;;;3.67;2.40;;;22.00;99.90;;;;;;5037924;28;20469;-53
2023/09/16 09:06:30;;;;;;;4.45;2.60;;;21.90;99.90;;;;;;5038065;28;20043;-51
2023/09/16 09:08:56;;;;;;;5.90;3.70;;;21.90;99.90;;;;;;5037794;28;20037;-48
2023/09/16 09:11:23;;;;;;;5.20;2.80;;;21.90;99.90;;;;;;5038730;28;20036;-48
2023/09/16 09:13:49;;;;;;;4.55;2.63;;;22.00;99.90;;;;;;5038801;28;20033;-48
2023/09/16 09:16:18;;;;;;;4.43;2.67;;;22.20;99.90;;;;;;5021686;28;20029;-50
2023/09/16 09:18:45;;;;;;;5.53;2.00;;;22.50;99.90;;;;;;5040152;28;20075;-49
2023/09/16 09:21:11;;;;;;;5.15;2.40;;;22.50;99.90;;;;;;5041526;28;20393;-50
2023/09/16 09:23:37;;;;;;;5.15;2.90;;;22.50;99.90;;;;;;5040525;28;20104;-50
2023/09/16 09:26:02;;;;;;;4.13;2.30;;;22.60;99.90;;;;;;5040217;28;20037;-51
2023/09/16 09:28:28;;;;;;;4.05;2.60;;;22.80;99.90;;;;;;5037486;28;20124;-52
2023/09/16 09:30:58;;;;;;;4.03;2.30;;;23.00;99.90;;;;;;5035591;28;20037;-53
2023/09/16 09:33:26;;;;;;;4.60;2.17;;;22.90;99.90;;;;;;5035150;28;20029;-54
2023/09/16 09:36:11;;;;;;;5.25;2.63;;;22.80;99.90;;;;;;5035419;28;20025;-55
2023/09/16 09:38:41;;;;;;;3.78;2.20;;;22.90;99.90;;;;;;5034597;28;20033;-54
2023/09/16 09:41:07;;;;;;;3.72;2.47;;;23.30;99.90;;;;;;5034697;28;20397;-54
2023/09/16 09:43:32;;;;;;;5.85;2.63;;;23.30;99.90;;;;;;5034871;28;20041;-53
2023/09/16 09:45:58;;;;;;;4.18;2.50;;;23.50;99.90;;;;;;5034751;28;20037;-55
2023/09/16 09:48:24;;;;;;;4.82;2.70;;;23.60;99.90;;;;;;5035210;28;20112;-54
2023/09/16 09:50:50;;;;;;;4.45;2.80;;;23.70;99.90;;;;;;5035677;28;20086;-54
2023/09/16 09:53:15;;;;;;;6.43;2.90;;;23.70;99.90;;;;;;5037244;28;20055;-54
2023/09/16 09:55:41;;;;;;;3.80;2.40;;;23.70;99.90;;;;;;5037104;28;20025;-51
2023/09/16 09:58:07;;;;;;;4.75;2.65;;;23.50;99.90;;;;;;5035992;28;20386;-54
2023/09/16 10:00:32;;;;;;;5.85;2.92;;;23.60;99.90;;;;;;5035136;28;20040;-53
2023/09/16 10:03:00;;;;;;;5.75;2.67;;;23.70;99.90;;;;;;5035196;28;20040;-54
2023/09/16 10:05:26;;;;;;;5.45;2.65;;;23.70;99.90;;;;;;5035304;28;20056;-54
2023/09/16 10:07:52;;;;;;;6.03;3.70;;;23.60;99.90;;;;;;5035111;28;20386;-52
2023/09/16 10:10:25;;;;;;;4.38;2.90;;;23.80;99.90;;;;;;5035051;28;20116;-53
2023/09/16 10:12:52;;;;;;;3.88;2.30;;;24.10;99.90;;;;;;5033606;28;20033;-54
2023/09/16 10:15:26;;;;;;;3.63;2.28;;;24.40;99.90;;;;;;5035628;28;20043;-53
2023/09/16 10:17:53;;;;;;;4.18;2.63;;;24.80;99.90;;;;;;5034981;28;20033;-54
2023/09/16 10:20:18;;;;;;;4.32;2.67;;;25.00;99.90;;;;;;5034896;28;20030;-52
2023/09/16 10:22:45;;;;;;;4.38;2.60;;;24.70;99.90;;;;;;5034523;28;20049;-52
2023/09/16 10:25:16;;;;;;;5.75;3.30;;;24.40;99.90;;;;;;5034733;28;20033;-54
2023/09/16 10:28:01;;;;;;;5.20;3.30;;;24.30;99.90;;;;;;5034770;28;20029;-54
2023/09/16 10:30:27;;;;;;;4.90;2.63;;;24.50;99.90;;;;;;5034391;28;20060;-52
2023/09/16 10:32:53;;;;;;;5.28;2.70;;;24.70;99.90;;;;;;5034564;28;20040;-55
2023/09/16 10:35:22;;;;;;;5.05;2.53;;;24.90;99.90;;;;;;5034636;28;20029;-51
2023/09/16 10:37:48;;;;;;;;;;;25.20;99.90;;;;;;5035113;28;20026;-55
2023/09/16 10:40:16;;;;;;;5.30;3.58;;;25.40;99.90;;;;;;5034222;28;19992;-53
2023/09/16 10:42:44;;;;;;;4.70;2.92;;;26.00;99.90;;;;;;5035084;28;20041;-55
2023/09/16 10:45:13;;;;;;;5.50;2.80;;;26.70;99.90;;;;;;5034648;28;20052;-54
2023/09/16 10:47:39;;;;;;;4.10;2.70;;;27.00;99.90;;;;;;5034157;28;20044;-54
2023/09/16 10:50:05;;;;;;;4.68;2.90;;;26.50;99.90;;;;;;5034180;28;20029;-55
2023/09/16 10:52:51;;;;;;;5.57;4.10;;;26.10;99.90;;;;;;5034350;28;20044;-54
2023/09/16 10:55:43;;;;;;;5.90;3.95;;;26.10;99.90;;;;;;5034459;28;20025;-54
2023/09/16 10:58:19;;;;;;;6.03;3.95;;;25.80;99.90;;;;;;5034254;28;20025;-54
2023/09/16 11:00:53;;;;;;;5.78;3.13;;;25.70;99.90;;;;;;5034130;28;20533;-53
2023/09/16 11:03:27;;;;;;;4.90;3.10;;;25.70;99.90;;;;;;5034017;28;20022;-54
2023/09/16 11:05:52;;;;;;;4.60;2.78;;;25.60;99.90;;;;;;5034375;28;20033;-54
2023/09/16 11:08:18;;;;;;;3.92;2.78;;;25.50;99.90;;;;;;5034212;28;20544;-54
2023/09/16 11:10:44;;;;;;;6.47;2.90;;;25.50;99.90;;;;;;5033731;28;20048;-53
2023/09/16 11:13:10;;;;;;;4.70;3.28;;;25.60;99.90;;;;;;5034574;28;20466;-54
2023/09/16 11:15:36;;;;;;;3.85;2.70;;;25.50;99.90;;;;;;5035132;28;20117;-53
2023/09/16 11:18:02;;;;;;;4.68;2.90;;;25.30;99.90;;;;;;5035069;28;20030;-52
2023/09/16 11:20:31;;;;;;;5.43;3.22;;;25.40;99.90;;;;;;5034956;28;20053;-53
2023/09/16 11:22:59;;;;;;;4.78;2.58;;;25.40;99.90;;;;;;5033149;28;20033;-55
2023/09/16 11:25:29;;;;;;;;;;;25.50;99.90;;;;;;5033656;28;20040;-55
2023/09/16 11:27:55;;;;;;;4.60;2.75;;;25.60;99.90;;;;;;5033559;28;19913;-54
2023/09/16 11:30:22;;;;;;;3.83;2.65;;;25.70;99.90;;;;;;5032729;28;20478;-55
2023/09/16 11:32:56;;;;;;;3.97;2.38;;;25.70;99.90;;;;;;5033161;28;20033;-54
2023/09/16 11:35:23;;;;;;;3.83;2.53;;;25.80;99.90;;;;;;5015357;28;20087;-54
2023/09/16 11:37:49;;;;;;;4.72;2.65;;;25.80;99.90;;;;;;5033385;28;20486;-53
2023/09/16 11:40:15;;;;;;;4.20;2.80;;;25.60;99.90;;;;;;5032708;28;20033;-54
2023/09/16 11:42:41;;;;;;;4.05;2.50;;;25.60;99.90;;;;;;5033141;28;20040;-53
2023/09/16 11:45:08;;;;;;;5.35;2.88;;;25.80;99.90;;;;;;5033074;28;20140;-52
2023/09/16 11:47:34;;;;;;;4.07;2.55;;;25.90;99.90;;;;;;5033492;28;20044;-54
2023/09/16 11:50:00;;;;;;;4.20;2.80;;;26.00;99.90;;;;;;5033417;28;20095;-55
2023/09/16 11:52:25;;;;;;;4.22;2.80;;;26.30;99.90;;;;;;5032944;28;20378;-54
2023/09/16 11:54:52;;;;;;;4.60;2.90;;;26.40;99.90;;;;;;5033304;28;20040;-53
2023/09/16 11:57:18;;;;;;;5.00;2.85;;;26.30;99.90;;;;;;5032838;28;20087;-52
2023/09/16 11:59:46;;;;;;;6.45;2.83;;;26.40;99.90;;;;;;5032931;28;20531;-53
2023/09/16 12:02:11;;;;;;;4.55;2.85;;;26.50;99.90;;;;;;5032987;28;20398;-53
2023/09/16 12:04:39;;;;;;;4.43;2.80;;;26.70;99.90;;;;;;5033066;28;20041;-53
2023/09/16 12:07:05;;;;;;;5.70;3.00;;;26.70;99.90;;;;;;5032798;28;20092;-55
2023/09/16 12:09:32;;;;;;;4.35;2.75;;;26.60;99.90;;;;;;5032414;28;20053;-55
2023/09/16 12:11:59;;;;;;;4.00;2.67;;;26.50;99.90;;;;;;5032709;28;20044;-56
2023/09/16 12:14:24;;;;;;;5.20;3.00;;;26.40;99.90;;;;;;5032516;28;20029;-52
2023/09/16 12:16:53;;;;;;;4.13;2.83;;;26.20;99.90;;;;;;5032788;28;20075;-51
2023/09/16 12:19:19;;;;;;;4.82;2.80;;;26.10;99.90;;;;;;5032836;28;20071;-54
2023/09/16 12:21:49;;;;;;;3.88;2.80;;;26.10;99.90;;;;;;5032349;28;20033;-53
2023/09/16 12:24:20;;;;;;;4.95;3.20;;;26.20;99.90;;;;;;5032502;28;20042;-52
2023/09/16 12:26:46;;;;;;;3.85;2.55;;;26.30;99.90;;;;;;5014996;28;20033;-51
2023/09/16 12:29:12;;;;;;;4.22;2.83;;;26.40;99.90;;;;;;5032346;28;20037;-52
2023/09/16 12:31:38;;;;;;;4.13;2.95;;;26.40;99.90;;;;;;5033055;28;20041;-53
2023/09/16 12:34:04;;;;;;;6.20;2.80;;;26.60;99.90;;;;;;5032704;28;20029;-55
2023/09/16 12:36:30;;;;;;;4.55;2.67;;;26.70;99.90;;;;;;5014119;28;20049;-55
2023/09/16 12:38:59;;;;;;;5.35;2.70;;;26.60;99.90;;;;;;5032106;28;20486;-55
2023/09/16 12:41:26;;;;;;;4.80;3.22;;;26.60;99.90;;;;;;5032855;28;20052;-55
2023/09/16 12:43:53;;;;;;;5.80;2.80;;;26.80;99.90;;;;;;5032894;28;20033;-55